AFL584 UUEE-VTSP
Flight info
| Callsign | AFL584 |
|---|---|
| Flight time | N/A |
| Altitude | 31000 |
| Route | TOGMO3H TOGMO M56 DENUD M161 MILSO M875 TIGTA/K0909F330 M875 AMDAR/N0500F330 M875 TAPIS L509 NONIB T400 SULOM A466 DPN L759 NIXIG/N0503F350 L759 SATVA SATVA1C |
| Aircraft | B77W/H-SDE1E2E3FGHIJ2J3J4J5M1RWXY/LB1D1 |
Departure
| Time | 2026-04-30 21:38 |
|---|---|
| Airport | Sheremetyevo International Airport (UUEE) |
Arrival
| Time | N/A |
|---|---|
| Airport | Phuket International Airport (VTSP) |
| Time | Latitude | Longitude | Altitude | Speed | Heading |
|---|---|---|---|---|---|
| 2026-04-30 20:24 | 55.98014 | 37.42972 | 620 ft | 0 kts | 204° |
| 2026-04-30 21:21 | 55.98030 | 37.42986 | 620 ft | 2 kts | 204° |
| 2026-04-30 21:22 | 55.98044 | 37.42997 | 620 ft | 2 kts | 204° |
| 2026-04-30 21:22 | 55.98084 | 37.43033 | 620 ft | 2 kts | 216° |
| 2026-04-30 21:23 | 55.98095 | 37.43050 | 621 ft | 2 kts | 225° |
| 2026-04-30 21:23 | 55.98105 | 37.43070 | 621 ft | 2 kts | 233° |
| 2026-04-30 21:23 | 55.98119 | 37.43115 | 621 ft | 2 kts | 250° |
| 2026-04-30 21:24 | 55.98122 | 37.43130 | 621 ft | 1 kts | 255° |
| 2026-04-30 21:24 | 55.98122 | 37.43131 | 621 ft | 0 kts | 255° |
| 2026-04-30 21:28 | 55.98121 | 37.43128 | 621 ft | 0 kts | 255° |
| 2026-04-30 21:28 | 55.98112 | 37.43064 | 621 ft | 6 kts | 254° |
| 2026-04-30 21:29 | 55.98100 | 37.42982 | 620 ft | 7 kts | 254° |
| 2026-04-30 21:29 | 55.98061 | 37.42728 | 620 ft | 6 kts | 254° |
| 2026-04-30 21:30 | 55.98008 | 37.42667 | 619 ft | 4 kts | 177° |
| 2026-04-30 21:31 | 55.97856 | 37.42728 | 617 ft | 9 kts | 165° |
| 2026-04-30 21:31 | 55.97776 | 37.42840 | 616 ft | 6 kts | 85° |
| 2026-04-30 21:32 | 55.97805 | 37.43039 | 616 ft | 11 kts | 74° |
| 2026-04-30 21:32 | 55.97826 | 37.43181 | 616 ft | 11 kts | 74° |
| 2026-04-30 21:32 | 55.97843 | 37.43299 | 617 ft | 8 kts | 76° |
| 2026-04-30 21:32 | 55.97860 | 37.43417 | 618 ft | 12 kts | 74° |
| 2026-04-30 21:33 | 55.97883 | 37.43567 | 620 ft | 11 kts | 74° |
| 2026-04-30 21:33 | 55.97916 | 37.43781 | 622 ft | 6 kts | 74° |
| 2026-04-30 21:33 | 55.97928 | 37.43859 | 623 ft | 6 kts | 74° |
| 2026-04-30 21:34 | 55.97938 | 37.43922 | 623 ft | 4 kts | 74° |
| 2026-04-30 21:34 | 55.97942 | 37.43987 | 624 ft | 0 kts | 103° |
| 2026-04-30 21:34 | 55.97941 | 37.43990 | 624 ft | 0 kts | 107° |
| 2026-04-30 21:35 | 55.97932 | 37.44016 | 624 ft | 2 kts | 138° |
| 2026-04-30 21:35 | 55.97918 | 37.44030 | 623 ft | 2 kts | 159° |
| 2026-04-30 21:35 | 55.97892 | 37.44044 | 623 ft | 6 kts | 165° |
| 2026-04-30 21:35 | 55.97838 | 37.44070 | 623 ft | 7 kts | 165° |
| 2026-04-30 21:36 | 55.97797 | 37.44065 | 622 ft | 5 kts | 219° |
| 2026-04-30 21:36 | 55.97778 | 37.44010 | 622 ft | 5 kts | 248° |
| 2026-04-30 21:37 | 55.97770 | 37.43970 | 622 ft | 0 kts | 253° |
| 2026-04-30 21:37 | 55.97768 | 37.43958 | 622 ft | 6 kts | 253° |
| 2026-04-30 21:37 | 55.97689 | 37.43449 | 616 ft | 80 kts | 255° |
| 2026-04-30 21:37 | 55.97487 | 37.42089 | 620 ft | 147 kts | 254° |
| 2026-04-30 21:38 | 55.97169 | 37.39985 | 777 ft | 192 kts | 255° |
| 2026-04-30 21:38 | 55.96829 | 37.37684 | 1535 ft | 198 kts | 255° |
| 2026-04-30 21:38 | 55.96467 | 37.35390 | 2270 ft | 197 kts | 255° |
| 2026-04-30 21:38 | 55.96088 | 37.33019 | 2800 ft | 204 kts | 255° |
| 2026-04-30 21:39 | 55.95684 | 37.30576 | 3366 ft | 209 kts | 256° |
| 2026-04-30 21:39 | 55.95281 | 37.28029 | 3815 ft | 222 kts | 257° |
| 2026-04-30 21:39 | 55.94887 | 37.25529 | 4292 ft | 232 kts | 256° |
| 2026-04-30 21:39 | 55.94446 | 37.22724 | 4780 ft | 245 kts | 257° |
| 2026-04-30 21:40 | 55.93988 | 37.19720 | 5274 ft | 259 kts | 257° |
| 2026-04-30 21:40 | 55.93507 | 37.16609 | 5990 ft | 264 kts | 257° |
| 2026-04-30 21:40 | 55.93012 | 37.13451 | 6648 ft | 271 kts | 257° |
| 2026-04-30 21:40 | 55.92521 | 37.10269 | 7617 ft | 264 kts | 257° |
| 2026-04-30 21:41 | 55.92031 | 37.07084 | 8062 ft | 278 kts | 257° |
| 2026-04-30 21:41 | 55.91632 | 37.03702 | 8797 ft | 277 kts | 272° |
| 2026-04-30 21:41 | 55.91990 | 37.00413 | 9452 ft | 274 kts | 298° |
| 2026-04-30 21:41 | 55.93116 | 36.97744 | 10134 ft | 270 kts | 323° |
| 2026-04-30 21:42 | 55.94734 | 36.96014 | 10703 ft | 276 kts | 334° |
| 2026-04-30 21:42 | 55.96381 | 36.94301 | 11412 ft | 278 kts | 328° |
| 2026-04-30 21:42 | 55.98058 | 36.92563 | 11962 ft | 283 kts | 342° |
| 2026-04-30 21:42 | 55.99983 | 36.92046 | 12572 ft | 283 kts | 5° |
| 2026-04-30 21:43 | 56.01872 | 36.92874 | 13186 ft | 288 kts | 24° |
| 2026-04-30 21:43 | 56.03574 | 36.94848 | 13714 ft | 292 kts | 37° |
| 2026-04-30 21:43 | 56.05167 | 36.97060 | 14379 ft | 295 kts | 36° |
| 2026-04-30 21:43 | 56.06896 | 36.99171 | 14720 ft | 307 kts | 32° |
| 2026-04-30 21:44 | 56.08689 | 37.01261 | 15277 ft | 313 kts | 32° |
| 2026-04-30 21:44 | 56.10509 | 37.03517 | 15756 ft | 322 kts | 40° |
| 2026-04-30 21:44 | 56.11955 | 37.06597 | 16358 ft | 329 kts | 58° |
| 2026-04-30 21:44 | 56.12824 | 37.10359 | 17105 ft | 332 kts | 73° |
| 2026-04-30 21:45 | 56.13315 | 37.14359 | 17876 ft | 331 kts | 75° |
| 2026-04-30 21:45 | 56.13799 | 37.18364 | 18455 ft | 335 kts | 74° |
| 2026-04-30 21:45 | 56.14318 | 37.22431 | 19028 ft | 338 kts | 73° |
| 2026-04-30 21:45 | 56.14881 | 37.26540 | 19627 ft | 340 kts | 75° |
| 2026-04-30 21:46 | 56.15033 | 37.30809 | 20202 ft | 350 kts | 92° |
| 2026-04-30 21:46 | 56.14484 | 37.35079 | 20815 ft | 357 kts | 107° |
| 2026-04-30 21:46 | 56.13319 | 37.39073 | 21275 ft | 368 kts | 120° |
| 2026-04-30 21:46 | 56.11755 | 37.42760 | 21704 ft | 375 kts | 123° |
| 2026-04-30 21:47 | 56.10162 | 37.46369 | 22291 ft | 376 kts | 124° |
| 2026-04-30 21:47 | 56.08533 | 37.50029 | 22899 ft | 375 kts | 124° |
| 2026-04-30 21:47 | 56.06892 | 37.53678 | 23390 ft | 378 kts | 124° |
| 2026-04-30 21:47 | 56.05225 | 37.57350 | 23856 ft | 382 kts | 124° |
| 2026-04-30 21:48 | 56.03544 | 37.61036 | 24331 ft | 385 kts | 124° |
| 2026-04-30 21:48 | 56.01857 | 37.64724 | 24791 ft | 387 kts | 124° |
| 2026-04-30 21:48 | 56.00158 | 37.68426 | 25232 ft | 389 kts | 125° |
| 2026-04-30 21:48 | 55.98441 | 37.72160 | 25635 ft | 392 kts | 125° |
| 2026-04-30 21:49 | 55.96685 | 37.75970 | 25994 ft | 395 kts | 125° |
| 2026-04-30 21:49 | 55.94929 | 37.79771 | 26340 ft | 399 kts | 125° |
| 2026-04-30 21:49 | 55.93146 | 37.83627 | 26737 ft | 401 kts | 125° |
| 2026-04-30 21:49 | 55.91359 | 37.87483 | 27132 ft | 402 kts | 125° |
| 2026-04-30 21:50 | 55.89571 | 37.91334 | 27504 ft | 404 kts | 125° |
| 2026-04-30 21:50 | 55.87765 | 37.95216 | 27828 ft | 407 kts | 125° |
| 2026-04-30 21:50 | 55.85945 | 37.99125 | 28146 ft | 410 kts | 125° |
| 2026-04-30 21:50 | 55.84121 | 38.03033 | 28481 ft | 412 kts | 125° |
| 2026-04-30 21:51 | 55.82298 | 38.06924 | 28759 ft | 415 kts | 127° |
| 2026-04-30 21:51 | 55.80222 | 38.10537 | 29018 ft | 422 kts | 137° |
| 2026-04-30 21:51 | 55.77776 | 38.13513 | 29222 ft | 431 kts | 147° |
| 2026-04-30 21:51 | 55.75002 | 38.15792 | 29216 ft | 445 kts | 155° |
| 2026-04-30 21:52 | 55.72078 | 38.17746 | 29219 ft | 457 kts | 156° |
| 2026-04-30 21:52 | 55.69047 | 38.19735 | 29218 ft | 468 kts | 156° |
| 2026-04-30 21:52 | 55.65953 | 38.21762 | 29218 ft | 480 kts | 156° |
| 2026-04-30 21:52 | 55.62789 | 38.23835 | 29222 ft | 492 kts | 156° |
| 2026-04-30 21:53 | 55.59541 | 38.25961 | 29221 ft | 505 kts | 156° |
| 2026-04-30 21:53 | 55.56227 | 38.28127 | 29315 ft | 514 kts | 156° |
| 2026-04-30 21:53 | 55.52894 | 38.30300 | 29686 ft | 515 kts | 156° |
| 2026-04-30 21:53 | 55.49543 | 38.32482 | 30205 ft | 512 kts | 156° |
| 2026-04-30 21:54 | 55.46222 | 38.34640 | 30710 ft | 509 kts | 156° |
| 2026-04-30 21:54 | 55.42880 | 38.36810 | 31017 ft | 510 kts | 156° |
| 2026-04-30 21:54 | 55.39539 | 38.38977 | 31148 ft | 513 kts | 157° |
| 2026-04-30 21:54 | 55.36183 | 38.41149 | 31189 ft | 513 kts | 157° |
| 2026-04-30 21:55 | 55.29525 | 38.45448 | 31194 ft | 511 kts | 157° |
| 2026-04-30 21:55 | 55.22853 | 38.49741 | 31179 ft | 511 kts | 157° |
| 2026-04-30 21:56 | 55.16202 | 38.54005 | 31184 ft | 510 kts | 157° |
| 2026-04-30 21:56 | 55.09542 | 38.58260 | 31190 ft | 510 kts | 157° |
| 2026-04-30 21:57 | 55.02914 | 38.62480 | 31183 ft | 509 kts | 157° |
| 2026-04-30 21:57 | 54.96293 | 38.66681 | 31201 ft | 510 kts | 158° |
| 2026-04-30 21:58 | 54.89615 | 38.70903 | 31195 ft | 509 kts | 158° |
| 2026-04-30 21:58 | 54.82994 | 38.75074 | 31190 ft | 510 kts | 158° |
| 2026-04-30 21:59 | 54.76360 | 38.79239 | 31182 ft | 507 kts | 159° |
| 2026-04-30 22:00 | 54.66386 | 38.85474 | 31188 ft | 507 kts | 159° |
| 2026-04-30 22:00 | 54.56450 | 38.91652 | 31185 ft | 508 kts | 159° |
| 2026-04-30 22:01 | 54.49818 | 38.95758 | 31185 ft | 507 kts | 159° |
| 2026-04-30 22:01 | 54.43499 | 39.00931 | 31184 ft | 503 kts | 144° |
| 2026-04-30 22:02 | 54.38405 | 39.08900 | 31185 ft | 498 kts | 127° |
| 2026-04-30 22:02 | 54.34918 | 39.18996 | 31184 ft | 493 kts | 111° |
| 2026-04-30 22:03 | 54.32289 | 39.29795 | 31189 ft | 494 kts | 110° |
| 2026-04-30 22:03 | 54.29647 | 39.40678 | 31188 ft | 494 kts | 110° |
| 2026-04-30 22:04 | 54.26996 | 39.51545 | 31184 ft | 495 kts | 111° |
| 2026-04-30 22:05 | 54.22993 | 39.67856 | 31189 ft | 494 kts | 112° |
| 2026-04-30 22:05 | 54.20336 | 39.78611 | 31182 ft | 492 kts | 112° |
| 2026-04-30 22:06 | 54.17650 | 39.89436 | 31185 ft | 493 kts | 112° |
| 2026-04-30 22:06 | 54.13636 | 40.05513 | 31184 ft | 493 kts | 112° |
| 2026-04-30 22:07 | 54.11138 | 40.16454 | 31185 ft | 492 kts | 106° |
| 2026-04-30 22:07 | 54.09206 | 40.27639 | 31197 ft | 493 kts | 105° |
| 2026-04-30 22:08 | 54.07273 | 40.38806 | 31188 ft | 493 kts | 105° |
| 2026-04-30 22:08 | 54.05325 | 40.49968 | 31183 ft | 494 kts | 106° |
| 2026-04-30 22:09 | 54.03351 | 40.61192 | 31171 ft | 494 kts | 106° |
| 2026-04-30 22:09 | 54.01378 | 40.72338 | 31172 ft | 493 kts | 107° |
| 2026-04-30 22:10 | 53.99384 | 40.83522 | 31172 ft | 492 kts | 107° |
| 2026-04-30 22:10 | 53.97393 | 40.94625 | 31158 ft | 491 kts | 107° |
| 2026-04-30 22:11 | 53.94490 | 41.11192 | 31159 ft | 491 kts | 105° |
| 2026-04-30 22:12 | 53.92666 | 41.22418 | 31147 ft | 493 kts | 105° |
| 2026-04-30 22:12 | 53.90827 | 41.33624 | 31142 ft | 493 kts | 105° |
| 2026-04-30 22:13 | 53.88971 | 41.44826 | 31143 ft | 495 kts | 105° |
| 2026-04-30 22:13 | 53.87105 | 41.56005 | 31146 ft | 495 kts | 105° |
| 2026-04-30 22:14 | 53.85218 | 41.67222 | 31144 ft | 495 kts | 106° |
| 2026-04-30 22:14 | 53.83323 | 41.78405 | 31145 ft | 495 kts | 106° |
| 2026-04-30 22:15 | 53.81412 | 41.89563 | 31139 ft | 495 kts | 106° |
| 2026-04-30 22:15 | 53.79490 | 42.00713 | 31129 ft | 495 kts | 106° |
| 2026-04-30 22:16 | 53.77545 | 42.11928 | 31122 ft | 495 kts | 106° |
| 2026-04-30 22:17 | 53.73647 | 42.34188 | 31121 ft | 496 kts | 106° |
| 2026-04-30 22:17 | 53.70683 | 42.50939 | 31112 ft | 496 kts | 106° |
| 2026-04-30 22:18 | 53.67703 | 42.67622 | 31110 ft | 498 kts | 107° |
| 2026-04-30 22:19 | 53.65030 | 42.84455 | 31109 ft | 498 kts | 105° |
| 2026-04-30 22:20 | 53.62380 | 43.01343 | 31096 ft | 498 kts | 105° |
| 2026-04-30 22:20 | 53.59701 | 43.18164 | 31111 ft | 498 kts | 105° |
| 2026-04-30 22:21 | 53.57883 | 43.29461 | 31107 ft | 500 kts | 105° |
| 2026-04-30 22:21 | 53.56067 | 43.40668 | 31100 ft | 500 kts | 105° |
| 2026-04-30 22:22 | 53.54213 | 43.52027 | 31092 ft | 501 kts | 105° |
| 2026-04-30 22:22 | 53.52365 | 43.63275 | 31096 ft | 500 kts | 105° |
| 2026-04-30 22:23 | 53.50497 | 43.74564 | 31098 ft | 500 kts | 107° |
| 2026-04-30 22:23 | 53.48622 | 43.85823 | 31096 ft | 500 kts | 107° |
| 2026-04-30 22:24 | 53.46745 | 43.97023 | 31086 ft | 500 kts | 107° |
| 2026-04-30 22:24 | 53.44864 | 44.08175 | 31080 ft | 499 kts | 107° |
| 2026-04-30 22:25 | 53.42963 | 44.19374 | 31074 ft | 500 kts | 107° |
| 2026-04-30 22:25 | 53.41047 | 44.30587 | 31076 ft | 500 kts | 107° |
| 2026-04-30 22:26 | 53.38150 | 44.47409 | 31073 ft | 501 kts | 107° |
| 2026-04-30 22:27 | 53.36215 | 44.58556 | 31071 ft | 500 kts | 107° |
| 2026-04-30 22:27 | 53.33296 | 44.75230 | 31066 ft | 500 kts | 108° |
| 2026-04-30 22:28 | 53.30341 | 44.91963 | 31064 ft | 500 kts | 108° |
| 2026-04-30 22:29 | 53.26204 | 45.14091 | 31068 ft | 499 kts | 111° |
| 2026-04-30 22:31 | 53.17842 | 45.52020 | 31050 ft | 498 kts | 111° |
| 2026-04-30 22:32 | 53.11829 | 45.79099 | 31034 ft | 497 kts | 112° |
| 2026-04-30 22:33 | 53.05855 | 46.05953 | 31022 ft | 497 kts | 112° |
| 2026-04-30 22:35 | 52.99828 | 46.32780 | 31020 ft | 495 kts | 112° |
| 2026-04-30 22:36 | 52.93767 | 46.59417 | 30993 ft | 494 kts | 112° |
| 2026-04-30 22:37 | 52.88884 | 46.80642 | 30982 ft | 492 kts | 113° |
| 2026-04-30 22:38 | 52.83979 | 47.01747 | 30962 ft | 492 kts | 113° |
| 2026-04-30 22:39 | 52.80365 | 47.17594 | 30973 ft | 492 kts | 111° |
| 2026-04-30 22:40 | 52.73555 | 47.49570 | 30980 ft | 494 kts | 111° |
| 2026-04-30 22:41 | 52.67817 | 47.76088 | 30967 ft | 491 kts | 112° |
| 2026-04-30 22:43 | 52.60895 | 48.07669 | 30969 ft | 492 kts | 113° |
| 2026-04-30 22:44 | 52.56204 | 48.28745 | 30982 ft | 491 kts | 113° |
| 2026-04-30 22:45 | 52.49086 | 48.60305 | 30981 ft | 492 kts | 114° |
| 2026-04-30 22:47 | 52.41888 | 48.91747 | 30982 ft | 491 kts | 114° |
| 2026-04-30 22:48 | 52.37035 | 49.12688 | 30994 ft | 492 kts | 115° |
| 2026-04-30 22:49 | 52.29674 | 49.43954 | 30983 ft | 492 kts | 115° |
| 2026-04-30 22:51 | 52.22263 | 49.75031 | 30981 ft | 491 kts | 116° |
| 2026-04-30 22:52 | 52.18513 | 49.90589 | 30993 ft | 490 kts | 116° |
| 2026-04-30 22:53 | 52.13517 | 50.11145 | 31006 ft | 489 kts | 116° |
| 2026-04-30 22:53 | 52.09736 | 50.26580 | 31005 ft | 490 kts | 116° |
| 2026-04-30 22:55 | 52.03406 | 50.52172 | 31007 ft | 488 kts | 116° |
| 2026-04-30 22:56 | 51.98253 | 50.72478 | 31002 ft | 485 kts | 122° |
| 2026-04-30 22:56 | 51.91976 | 50.84826 | 30999 ft | 469 kts | 147° |
| 2026-04-30 22:57 | 51.86429 | 50.89909 | 31008 ft | 459 kts | 163° |
| 2026-04-30 22:58 | 51.74252 | 50.95601 | 31014 ft | 457 kts | 168° |
| 2026-04-30 22:59 | 51.65308 | 51.00859 | 31003 ft | 465 kts | 153° |
| 2026-04-30 22:59 | 51.57134 | 51.09469 | 31005 ft | 467 kts | 151° |